createdAt,value
2023-01-03T00:01:51.766Z,29.00
2023-01-03T00:04:21.962Z,32.25
2023-01-03T00:06:51.662Z,31.25
2023-01-03T00:09:22.707Z,32.00
2023-01-03T00:12:10.882Z,26.25
2023-01-03T00:14:40.819Z,30.75
2023-01-03T00:17:09.584Z,29.25
2023-01-03T00:19:43.087Z,26.75
2023-01-03T00:22:11.954Z,32.25
2023-01-03T00:24:40.160Z,30.25
2023-01-03T00:27:08.629Z,30.00
2023-01-03T00:29:36.796Z,30.75
2023-01-03T00:32:05.408Z,33.25
2023-01-03T00:34:34.639Z,31.25
2023-01-03T00:37:03.313Z,32.75
2023-01-03T00:39:31.351Z,34.00
2023-01-03T00:41:58.984Z,33.00
2023-01-03T00:44:26.764Z,33.00
2023-01-03T00:46:54.546Z,28.25
2023-01-03T00:49:26.646Z,28.25
2023-01-03T00:51:55.762Z,31.00
2023-01-03T00:54:24.044Z,27.00
2023-01-03T00:56:52.675Z,31.00
2023-01-03T00:59:21.379Z,30.50
2023-01-03T01:01:54.375Z,28.00
2023-01-03T01:04:29.093Z,28.00
2023-01-03T01:07:04.444Z,29.25
2023-01-03T01:09:35.683Z,24.75
2023-01-03T01:12:05.425Z,29.75
2023-01-03T01:14:33.921Z,28.75
2023-01-03T01:17:07.924Z,27.75
2023-01-03T01:19:42.433Z,29.50
2023-01-03T01:22:13.336Z,28.25
2023-01-03T01:24:41.723Z,32.00
2023-01-03T01:27:09.475Z,30.25
2023-01-03T01:29:38.981Z,29.00
2023-01-03T01:32:07.342Z,29.50
2023-01-03T01:34:34.962Z,28.25
2023-01-03T01:37:02.620Z,30.75
2023-01-03T01:39:30.825Z,28.00
2023-01-03T01:42:24.047Z,29.00
2023-01-03T01:44:59.004Z,27.75
2023-01-03T01:47:47.588Z,28.50
2023-01-03T01:50:43.638Z,27.75
2023-01-03T01:53:24.200Z,25.25
2023-01-03T01:56:00.858Z,12.00
2023-01-03T01:58:35.027Z,24.25
2023-01-03T02:01:17.991Z,24.00
2023-01-03T02:03:52.495Z,27.75
2023-01-03T02:06:20.458Z,28.25
2023-01-03T02:08:48.537Z,27.50
2023-01-03T02:11:25.091Z,29.00
2023-01-03T02:14:15.348Z,28.50
2023-01-03T02:17:21.054Z,26.00
2023-01-03T02:19:48.636Z,22.25
2023-01-03T02:22:53.420Z,24.50
2023-01-03T02:25:27.200Z,25.00
2023-01-03T02:28:13.799Z,24.00
2023-01-03T02:30:52.600Z,25.25
2023-01-03T02:33:41.952Z,24.75
2023-01-03T02:36:09.537Z,24.50
2023-01-03T02:38:42.884Z,25.00
2023-01-03T02:41:35.339Z,24.00
2023-01-03T02:44:11.633Z,22.25
2023-01-03T02:47:07.671Z,23.75
2023-01-03T02:49:41.714Z,21.50
2023-01-03T02:52:16.891Z,21.00
2023-01-03T02:54:51.499Z,14.75
2023-01-03T02:57:24.669Z,15.50
2023-01-03T03:00:00.909Z,19.75
2023-01-03T03:02:35.492Z,18.50
2023-01-03T03:05:08.479Z,18.75
2023-01-03T03:07:39.418Z,17.50
2023-01-03T03:10:27.779Z,18.00
2023-01-03T03:13:13.514Z,19.00
2023-01-03T03:16:10.118Z,19.50
2023-01-03T03:18:57.597Z,22.00
2023-01-03T03:21:49.838Z,14.25
2023-01-03T03:24:40.674Z,18.00
2023-01-03T03:27:31.383Z,17.50
2023-01-03T03:30:03.215Z,16.25
2023-01-03T03:32:34.435Z,16.00
2023-01-03T03:35:04.781Z,15.75
2023-01-03T03:37:39.011Z,16.50
2023-01-03T03:40:26.744Z,16.00
2023-01-03T03:43:34.755Z,19.25
2023-01-03T03:46:13.207Z,18.00
2023-01-03T03:49:14.192Z,18.50
2023-01-03T03:51:45.009Z,16.00
2023-01-03T03:54:18.713Z,18.75
2023-01-03T03:56:53.080Z,15.50
2023-01-03T03:59:22.882Z,17.75
2023-01-03T04:01:52.536Z,19.00
2023-01-03T04:04:29.459Z,19.50
2023-01-03T04:06:57.250Z,19.25
2023-01-03T04:09:24.970Z,21.50
2023-01-03T04:11:52.752Z,19.75
2023-01-03T04:14:20.526Z,19.75
2023-01-03T04:16:48.395Z,15.75
2023-01-03T04:19:16.018Z,16.75
2023-01-03T04:21:43.578Z,16.25
2023-01-03T04:24:11.310Z,8.00
2023-01-03T04:26:38.934Z,17.75
2023-01-03T04:29:06.855Z,14.25
2023-01-03T04:31:35.403Z,14.00
2023-01-03T04:34:03.206Z,17.50
2023-01-03T04:36:30.892Z,15.00
2023-01-03T04:38:58.401Z,20.75
2023-01-03T04:41:26.036Z,18.50
2023-01-03T04:44:02.429Z,16.25
2023-01-03T04:46:36.625Z,17.75
2023-01-03T04:49:05.800Z,8.50
2023-01-03T04:51:36.550Z,20.00
2023-01-03T04:54:06.132Z,16.50
2023-01-03T04:56:36.653Z,19.00
2023-01-03T04:59:05.205Z,21.00
2023-01-03T05:01:33.083Z,22.25
2023-01-03T05:04:02.528Z,24.00
2023-01-03T05:06:30.281Z,23.75
2023-01-03T05:08:57.959Z,24.75
2023-01-03T05:11:25.636Z,29.00
2023-01-03T05:13:53.377Z,20.25
2023-01-03T05:16:21.099Z,21.67
2023-01-03T05:18:51.544Z,22.25
2023-01-03T05:21:40.560Z,23.00
2023-01-03T05:24:30.049Z,15.00
2023-01-03T05:27:00.943Z,15.75
2023-01-03T05:29:30.314Z,21.25
2023-01-03T05:31:59.672Z,20.50
2023-01-03T05:34:27.459Z,23.00
2023-01-03T05:36:55.118Z,22.50
2023-01-03T05:39:22.913Z,29.00
2023-01-03T05:41:59.658Z,18.25
2023-01-03T05:44:29.426Z,27.50
2023-01-03T05:46:58.668Z,25.25
2023-01-03T05:49:26.909Z,25.00
2023-01-03T05:51:54.488Z,23.25
2023-01-03T05:54:22.789Z,27.25
2023-01-03T05:56:51.379Z,22.75
2023-01-03T05:59:20.006Z,25.50
2023-01-03T06:01:47.650Z,18.25
2023-01-03T06:04:15.415Z,25.75
2023-01-03T06:06:43.332Z,25.25
2023-01-03T06:09:11.393Z,23.75
2023-01-03T06:11:41.272Z,21.75
2023-01-03T06:14:09.127Z,24.00
2023-01-03T06:16:59.384Z,16.75
2023-01-03T06:19:27.500Z,26.75
2023-01-03T06:21:55.156Z,24.25
2023-01-03T06:24:23.103Z,22.50
2023-01-03T06:26:50.686Z,26.75
2023-01-03T06:29:18.265Z,26.50
2023-01-03T06:31:45.836Z,26.25
2023-01-03T06:34:13.452Z,26.00
2023-01-03T06:36:41.041Z,26.00
2023-01-03T06:39:09.353Z,25.50
2023-01-03T06:41:38.074Z,23.25
2023-01-03T06:44:05.706Z,23.00
2023-01-03T06:46:51.699Z,26.75
2023-01-03T06:49:38.436Z,26.75
2023-01-03T06:52:31.681Z,27.00
2023-01-03T06:54:59.284Z,27.50
2023-01-03T06:57:27.547Z,22.00
2023-01-03T06:59:57.738Z,25.50
2023-01-03T07:02:26.252Z,24.00
2023-01-03T07:04:53.886Z,26.50
2023-01-03T07:07:21.519Z,25.75
2023-01-03T07:09:49.320Z,25.50
2023-01-03T07:12:38.275Z,20.50
2023-01-03T07:15:06.504Z,23.00
2023-01-03T07:17:35.646Z,30.00
2023-01-03T07:20:03.868Z,25.00
2023-01-03T07:22:31.839Z,17.00
2023-01-03T07:24:59.894Z,24.75
2023-01-03T07:27:27.929Z,17.00
2023-01-03T07:29:55.773Z,22.75
2023-01-03T07:32:23.482Z,23.75
2023-01-03T07:34:51.674Z,13.25
2023-01-03T07:37:20.222Z,23.25
2023-01-03T07:39:47.873Z,17.75
2023-01-03T07:42:34.777Z,22.25
2023-01-03T07:45:02.487Z,23.75
2023-01-03T07:47:30.228Z,20.75
2023-01-03T07:49:57.966Z,23.25
2023-01-03T07:52:27.749Z,19.00
2023-01-03T07:54:55.437Z,20.50
2023-01-03T07:57:23.185Z,21.00
2023-01-03T07:59:52.775Z,21.50
2023-01-03T08:02:21.028Z,19.50
2023-01-03T08:04:48.940Z,20.00
2023-01-03T08:07:16.711Z,19.00
2023-01-03T08:10:03.056Z,20.00
2023-01-03T08:12:49.888Z,18.00
2023-01-03T08:15:17.598Z,20.75
2023-01-03T08:17:45.380Z,17.25
2023-01-03T08:20:14.491Z,16.25
2023-01-03T08:22:42.241Z,18.25
2023-01-03T08:25:11.717Z,22.00
2023-01-03T08:27:42.817Z,12.75
2023-01-03T08:30:14.795Z,17.00
2023-01-03T08:32:42.890Z,19.25
2023-01-03T08:35:11.540Z,17.25
2023-01-03T08:37:39.559Z,18.25
2023-01-03T08:40:10.945Z,18.50
2023-01-03T08:42:39.745Z,16.00
2023-01-03T08:45:12.716Z,15.75
2023-01-03T08:47:43.170Z,16.25
2023-01-03T08:50:13.274Z,15.75
2023-01-03T08:52:41.419Z,16.67
2023-01-03T08:55:10.007Z,10.75
2023-01-03T08:57:38.148Z,11.67
2023-01-03T09:00:06.840Z,12.25
2023-01-03T09:02:36.565Z,14.67
2023-01-03T09:25:37.117Z,17.00
2023-01-03T09:28:15.371Z,17.25
2023-01-03T09:31:02.133Z,13.75
2023-01-03T09:39:28.703Z,14.25
2023-01-03T09:42:21.387Z,15.33
2023-01-03T09:54:00.810Z,14.00
2023-01-03T09:56:51.723Z,13.67
2023-01-03T09:59:38.095Z,14.00
2023-01-03T10:03:02.235Z,17.00
2023-01-03T10:06:07.570Z,17.00
2023-01-03T10:08:42.444Z,14.33
2023-01-03T10:11:26.709Z,14.00
2023-01-03T10:14:32.045Z,16.67
2023-01-03T10:17:11.873Z,11.33
2023-01-03T10:19:57.570Z,11.33
2023-01-03T10:22:28.953Z,13.00
2023-01-03T10:24:59.665Z,9.00
2023-01-03T10:27:30.201Z,12.67
2023-01-03T10:30:02.148Z,8.33
2023-01-03T10:32:57.560Z,13.00
2023-01-03T10:35:33.370Z,12.50
2023-01-03T10:38:01.367Z,11.33
2023-01-03T10:40:40.431Z,11.25
2023-01-03T10:43:41.267Z,13.00
2023-01-03T10:46:23.803Z,13.00
2023-01-03T10:49:26.136Z,14.33
2023-01-03T10:51:47.287Z,13.67
2023-01-03T10:54:17.953Z,17.00
2023-01-03T10:56:47.657Z,14.00
2023-01-03T10:59:15.423Z,12.00
2023-01-03T11:02:09.503Z,14.33
2023-01-03T11:04:39.837Z,13.50
2023-01-03T11:07:13.585Z,9.75
2023-01-03T11:09:54.594Z,14.75
2023-01-03T11:12:37.749Z,12.75
2023-01-03T11:15:38.014Z,11.00
2023-01-03T11:18:17.864Z,10.50
2023-01-03T11:21:10.244Z,11.25
2023-01-03T11:24:01.733Z,15.00
2023-01-03T11:26:55.073Z,12.25
2023-01-03T11:29:25.598Z,14.33
2023-01-03T11:32:19.227Z,16.75
2023-01-03T11:35:25.593Z,12.00
2023-01-03T11:38:01.531Z,15.67
2023-01-03T11:40:58.248Z,8.67
2023-01-03T11:43:34.880Z,15.67
2023-01-03T11:46:21.430Z,19.00
2023-01-03T11:49:02.256Z,17.33
2023-01-03T11:51:42.178Z,15.00
2023-01-03T11:54:32.319Z,20.33
2023-01-03T11:57:12.574Z,5.33
2023-01-03T11:59:46.469Z,18.00
2023-01-03T12:02:32.584Z,20.33
2023-01-03T12:05:35.253Z,18.00
2023-01-03T12:08:18.051Z,21.00
2023-01-03T12:10:48.466Z,18.00
2023-01-03T12:13:42.224Z,20.33
2023-01-03T12:16:23.655Z,21.00
2023-01-03T12:19:11.914Z,22.00
2023-01-03T12:21:50.435Z,21.33
2023-01-03T12:24:30.465Z,18.67
2023-01-03T12:27:10.603Z,20.33
2023-01-03T12:29:41.239Z,22.25
2023-01-03T12:32:41.613Z,16.75
2023-01-03T12:35:20.472Z,21.00
2023-01-03T12:37:51.015Z,17.00
2023-01-03T12:40:40.963Z,21.75
2023-01-03T12:43:26.725Z,19.33
2023-01-03T12:46:12.171Z,24.25
2023-01-03T12:49:09.632Z,24.00
2023-01-03T12:51:37.993Z,18.75
2023-01-03T12:54:15.224Z,24.00
2023-01-03T12:57:13.517Z,22.75
2023-01-03T13:00:44.823Z,23.00
2023-01-03T13:03:40.805Z,25.25
2023-01-03T13:06:19.888Z,29.00
2023-01-03T13:09:20.553Z,28.25
2023-01-03T13:11:53.734Z,23.50
2023-01-03T13:14:27.559Z,27.00
2023-01-03T13:17:07.170Z,26.25
2023-01-03T13:19:35.626Z,19.25
2023-01-03T13:22:50.975Z,25.25
2023-01-03T13:25:27.374Z,25.00
2023-01-03T13:28:15.048Z,27.50
2023-01-03T13:30:42.903Z,26.25
2023-01-03T13:33:10.602Z,24.25
2023-01-03T13:35:44.853Z,28.50
2023-01-03T13:38:24.801Z,27.75
2023-01-03T13:43:50.291Z,29.00
2023-01-03T13:46:23.449Z,25.50
2023-01-03T13:49:06.855Z,27.00
2023-01-03T13:51:54.199Z,26.75
2023-01-03T13:54:25.382Z,29.00
2023-01-03T13:56:53.461Z,29.00
2023-01-03T13:59:35.071Z,28.25
2023-01-03T14:02:12.684Z,27.75
2023-01-03T14:05:13.695Z,30.00
2023-01-03T14:08:00.510Z,29.00
2023-01-03T14:10:37.174Z,27.00
2023-01-03T14:13:20.371Z,27.50
2023-01-03T14:15:50.381Z,26.00
2023-01-03T14:18:26.801Z,31.50
2023-01-03T14:20:58.213Z,28.00
2023-01-03T14:26:18.537Z,28.75
2023-01-03T14:28:50.083Z,25.25
2023-01-03T14:31:24.860Z,30.25
2023-01-03T14:33:57.525Z,30.25
2023-01-03T14:36:26.079Z,28.25
2023-01-03T14:38:59.754Z,30.00
2023-01-03T14:41:38.365Z,27.50
2023-01-03T14:44:17.353Z,30.25
2023-01-03T14:46:55.486Z,27.75
2023-01-03T14:49:41.957Z,31.25
2023-01-03T14:52:28.132Z,26.50
2023-01-03T14:55:04.391Z,30.25
2023-01-03T14:57:40.311Z,30.50
2023-01-03T15:00:17.139Z,31.25
2023-01-03T15:02:46.566Z,30.00
2023-01-03T15:05:29.799Z,32.50
2023-01-03T15:08:13.133Z,31.25
2023-01-03T15:10:56.181Z,30.50
2023-01-03T15:13:39.947Z,30.00
2023-01-03T15:16:20.990Z,30.50
2023-01-03T15:18:49.426Z,30.50
2023-01-03T15:21:19.403Z,30.00
2023-01-03T15:23:50.048Z,32.25
2023-01-03T15:26:41.360Z,31.50
2023-01-03T15:29:14.482Z,30.75
2023-01-03T15:32:01.488Z,30.00
2023-01-03T15:34:29.650Z,25.75
2023-01-03T15:37:13.957Z,29.25
2023-01-03T15:39:52.888Z,32.00
2023-01-03T15:42:45.310Z,28.25
2023-01-03T15:45:27.644Z,31.00
2023-01-03T15:47:59.994Z,27.50
2023-01-03T15:50:43.356Z,30.25
2023-01-03T15:53:21.967Z,27.50
2023-01-03T15:55:57.595Z,29.75
2023-01-03T15:58:27.490Z,31.00
2023-01-03T16:00:56.317Z,31.00
2023-01-03T16:03:28.276Z,30.75
2023-01-03T16:05:56.635Z,31.00
2023-01-03T16:08:28.505Z,32.75
2023-01-03T16:11:02.599Z,31.25
2023-01-03T16:13:37.341Z,31.25
2023-01-03T16:16:07.171Z,30.75
2023-01-03T16:18:42.967Z,32.00
2023-01-03T16:21:12.078Z,32.00
2023-01-03T16:23:40.073Z,31.25
2023-01-03T16:26:08.741Z,29.00
2023-01-03T16:28:36.796Z,31.00
2023-01-03T16:31:14.409Z,27.25
2023-01-03T16:33:43.224Z,31.25
2023-01-03T16:36:39.818Z,31.25
2023-01-03T16:39:19.261Z,29.75
2023-01-03T16:42:07.637Z,26.00
2023-01-03T16:44:40.439Z,29.75
2023-01-03T16:47:16.019Z,28.50
2023-01-03T16:49:47.077Z,30.25
2023-01-03T16:52:20.506Z,25.25
2023-01-03T16:54:50.263Z,30.50
2023-01-03T16:57:20.229Z,29.75
2023-01-03T16:59:49.459Z,18.75
2023-01-03T17:02:17.586Z,29.75
2023-01-03T17:04:45.887Z,29.75
2023-01-03T17:07:24.124Z,30.50
2023-01-03T17:09:52.958Z,28.25
2023-01-03T17:12:24.184Z,29.25
2023-01-03T17:14:52.522Z,29.75
2023-01-03T17:17:22.931Z,29.50
2023-01-03T17:20:06.811Z,29.50
2023-01-03T17:22:36.148Z,28.75
2023-01-03T17:25:04.521Z,28.75
2023-01-03T17:27:33.565Z,30.75
2023-01-03T17:30:05.904Z,30.50
2023-01-03T17:32:34.264Z,30.25
2023-01-03T17:35:03.640Z,31.00
2023-01-03T17:37:40.899Z,26.00
2023-01-03T17:40:29.244Z,28.00
2023-01-03T17:43:01.259Z,29.00
2023-01-03T17:45:48.014Z,29.50
2023-01-03T17:48:34.581Z,27.00
2023-01-03T17:51:03.309Z,28.00
2023-01-03T17:53:31.263Z,29.00
2023-01-03T17:55:59.643Z,28.50
2023-01-03T17:58:35.851Z,30.25
2023-01-03T18:01:04.435Z,27.50
2023-01-03T18:03:32.817Z,29.00
2023-01-03T18:06:06.813Z,28.50
2023-01-03T18:08:35.370Z,27.00
2023-01-03T18:11:06.632Z,25.25
2023-01-03T18:13:38.764Z,28.00
2023-01-03T18:16:07.383Z,28.00
2023-01-03T18:18:35.449Z,27.00
2023-01-03T18:21:05.846Z,28.75
2023-01-03T18:23:38.046Z,31.75
2023-01-03T18:26:13.463Z,27.00
2023-01-03T18:28:41.118Z,30.00
2023-01-03T18:31:19.599Z,28.00
2023-01-03T18:33:47.549Z,27.50
2023-01-03T18:36:32.516Z,27.50
2023-01-03T18:39:15.862Z,28.00
2023-01-03T18:41:44.176Z,28.00
2023-01-03T18:44:21.259Z,30.00
2023-01-03T18:46:49.650Z,27.50
2023-01-03T18:49:18.680Z,29.25
2023-01-03T18:51:49.754Z,31.00
2023-01-03T18:54:19.944Z,31.00
2023-01-03T18:56:47.697Z,33.00
2023-01-03T18:59:27.018Z,27.75
2023-01-03T19:01:55.794Z,30.50
2023-01-03T19:04:26.459Z,28.25
2023-01-03T19:06:54.315Z,29.00
2023-01-03T19:09:24.857Z,28.50
2023-01-03T19:11:54.641Z,27.75
2023-01-03T19:14:22.332Z,29.75
2023-01-03T19:16:50.035Z,29.50
2023-01-03T19:19:17.903Z,32.00
2023-01-03T19:21:47.323Z,28.00
2023-01-03T19:24:39.316Z,29.00
2023-01-03T19:27:15.470Z,28.00
2023-01-03T19:29:44.649Z,27.50
2023-01-03T19:32:19.385Z,28.75
2023-01-03T19:34:48.076Z,30.00
2023-01-03T19:37:16.246Z,28.75
2023-01-03T19:39:44.037Z,28.25
2023-01-03T19:42:37.480Z,27.25
2023-01-03T19:45:17.666Z,27.75
2023-01-03T19:47:45.479Z,28.00
2023-01-03T19:50:26.067Z,29.25
2023-01-03T19:52:54.743Z,28.75
2023-01-03T19:55:29.935Z,28.25
2023-01-03T19:58:01.640Z,29.00
2023-01-03T20:00:37.264Z,26.50
2023-01-03T20:03:20.807Z,29.00
2023-01-03T20:05:51.010Z,26.75
2023-01-03T20:08:19.930Z,24.75
2023-01-03T20:10:51.270Z,28.50
2023-01-03T20:13:23.547Z,29.50
2023-01-03T20:15:54.651Z,28.00
2023-01-03T20:18:25.836Z,29.00
2023-01-03T20:20:57.530Z,28.50
2023-01-03T20:23:29.268Z,29.25
2023-01-03T20:25:57.386Z,29.75
2023-01-03T20:28:31.595Z,24.00
2023-01-03T20:31:02.706Z,30.00
2023-01-03T20:33:31.079Z,28.50
2023-01-03T20:36:14.411Z,30.00
2023-01-03T20:38:48.171Z,29.00
2023-01-03T20:41:17.899Z,28.25
2023-01-03T20:43:47.676Z,31.50
2023-01-03T20:46:20.352Z,26.00
2023-01-03T20:48:56.278Z,29.00
2023-01-03T20:51:25.121Z,25.50
2023-01-03T20:53:55.468Z,31.25
2023-01-03T20:56:24.165Z,28.50
2023-01-03T20:58:53.170Z,29.00
2023-01-03T21:01:21.709Z,29.75
2023-01-03T21:03:49.920Z,28.00
2023-01-03T21:06:24.122Z,32.75
2023-01-03T21:08:54.824Z,27.50
2023-01-03T21:11:31.023Z,29.75
2023-01-03T21:14:00.481Z,31.25
2023-01-03T21:16:32.863Z,26.00
2023-01-03T21:19:27.197Z,29.25
2023-01-03T21:21:56.292Z,28.25
2023-01-03T21:24:24.964Z,28.75
2023-01-03T21:26:53.034Z,29.25
2023-01-03T21:29:22.246Z,27.00
2023-01-03T21:31:50.180Z,29.75
2023-01-03T21:34:20.453Z,29.50
2023-01-03T21:36:48.693Z,26.00
2023-01-03T21:39:17.146Z,26.75
2023-01-03T21:42:03.699Z,29.25
2023-01-03T21:44:33.390Z,25.75
2023-01-03T21:47:01.158Z,26.75
2023-01-03T21:49:29.168Z,27.00
2023-01-03T21:51:56.831Z,24.00
2023-01-03T21:54:24.616Z,30.75
2023-01-03T21:56:52.241Z,27.00
2023-01-03T21:59:22.241Z,29.00
2023-01-03T22:02:08.792Z,26.50
2023-01-03T22:04:36.634Z,25.25
2023-01-03T22:07:04.212Z,25.75
2023-01-03T22:09:50.639Z,30.00
2023-01-03T22:12:19.284Z,29.50
2023-01-03T22:14:47.311Z,23.00
2023-01-03T22:17:16.883Z,29.00
2023-01-03T22:19:45.185Z,30.25
2023-01-03T22:22:12.710Z,23.00
2023-01-03T22:24:40.715Z,31.75
2023-01-03T22:27:08.897Z,27.25
2023-01-03T22:29:36.692Z,28.50
2023-01-03T22:32:04.650Z,30.00
2023-01-03T22:34:32.914Z,26.25
2023-01-03T22:37:00.605Z,30.00
2023-01-03T22:39:28.314Z,27.75
2023-01-03T22:41:56.769Z,29.00
2023-01-03T22:44:24.381Z,28.25
2023-01-03T22:46:51.933Z,26.50
2023-01-03T22:49:20.524Z,14.75
2023-01-03T22:51:48.439Z,28.00
2023-01-03T22:54:16.079Z,25.00
2023-01-03T22:56:44.926Z,29.50
2023-01-03T22:59:13.012Z,28.00
2023-01-03T23:01:40.824Z,31.00
2023-01-03T23:04:09.005Z,28.00
2023-01-03T23:06:37.425Z,27.00
2023-01-03T23:09:06.034Z,26.00
2023-01-03T23:11:52.768Z,27.75
2023-01-03T23:14:25.867Z,25.00
2023-01-03T23:16:57.845Z,28.50
2023-01-03T23:19:26.965Z,25.00
2023-01-03T23:21:58.466Z,25.00
2023-01-03T23:24:26.377Z,26.00
2023-01-03T23:26:54.230Z,26.50
2023-01-03T23:29:23.198Z,20.50
2023-01-03T23:31:50.953Z,27.00
2023-01-03T23:34:18.539Z,23.50
2023-01-03T23:36:46.211Z,29.25
2023-01-03T23:39:16.648Z,27.00
2023-01-03T23:41:44.990Z,26.50
2023-01-03T23:44:12.726Z,25.25
2023-01-03T23:46:41.897Z,25.50
2023-01-03T23:49:11.899Z,27.00
2023-01-03T23:51:39.433Z,27.50
2023-01-03T23:54:06.964Z,26.75
2023-01-03T23:56:34.554Z,26.25
2023-01-03T23:59:02.442Z,27.50
